CW4713 Weather Reports


Display with metric or nautical units.
time (UTC)temp
F
wind
direction
speed
MPH
gust
MPH
rain 1hr
in
rain 24hr
in
rain mn
in
humidity
%
barometer
mb
20200711204803 64 12 4.0 7.0 0.00 0.00 0.00 71 1006.9
20200711204304 65 314 3.0 7.0 0.00 0.00 0.00 72 1006.9
20200711203804 65 331 3.0 9.0 0.00 0.00 0.00 72 1006.9
20200711203304 65 326 3.0 8.0 0.00 0.00 0.00 72 1006.9
20200711202803 65 327 1.0 5.0 0.00 0.00 0.00 72 1006.9
20200711202305 65 309 3.0 9.0 0.00 0.00 0.00 72 1006.9
20200711201804 65 192 1.0 2.0 0.00 0.00 0.00 71 1006.9
20200711201303 64 28 1.0 2.0 0.00 0.00 0.00 71 1006.9
20200711200804 64 345 2.0 3.0 0.00 0.00 0.00 71 1006.9
20200711200304 64 2 4.0 6.0 0.00 0.00 0.00 71 1007.0
20200711195804 64 342 3.0 6.0 0.00 0.00 0.00 73 1007.0
20200711195304 64 116 1.0 6.0 0.00 0.00 0.00 74 1007.0
20200711194804 63 19 2.0 6.0 0.00 0.00 0.00 75 1007.0
20200711194304 63 16 2.0 5.0 0.00 0.00 0.00 75 1007.0
20200711193805 63 56 2.0 5.0 0.00 0.00 0.00 75 1007.1
20200711193305 63 31 2.0 5.0 0.00 0.00 0.00 76 1007.0
20200711192807 62 14 2.0 5.0 0.00 0.00 0.00 76 1007.1
20200711192304 62 43 2.0 5.0 0.00 0.00 0.00 76 1007.1
20200711191804 62 0 3.0 6.0 0.00 0.00 0.00 77 1007.1
20200711191304 62 21 3.0 6.0 0.00 0.00 0.00 77 1007.1
20200711190806 62 13 4.0 8.0 0.00 0.00 0.00 78 1007.2
20200711190304 62 17 3.0 7.0 0.00 0.00 0.00 78 1007.1
20200711185804 63 348 3.0 9.0 0.00 0.00 0.00 78 1007.2
20200711185304 63 358 5.0 8.0 0.00 0.00 0.00 78 1007.2
20200711184804 63 348 6.0 8.0 0.00 0.00 0.00 77 1007.1
20200711184304 63 354 6.0 9.0 0.00 0.00 0.00 76 1007.2
20200711183804 63 25 3.0 6.0 0.00 0.00 0.00 76 1007.1
20200711183304 63 28 2.0 2.0 0.00 0.00 0.00 78 1007.1
20200711182804 62 329 3.0 5.0 0.00 0.00 0.00 78 1007.2
20200711182304 62 58 0.0 2.0 0.00 0.00 0.00 79 1007.2
20200711181804 62 45 2.0 3.0 0.00 0.00 0.00 80 1007.3
20200711181304 61 1 2.0 3.0 0.00 0.00 0.00 80 1007.3
20200711180804 61 280 0.0 2.0 0.00 0.00 0.00 81 1007.3
20200711180304 61 233 0.0 0.0 0.00 0.00 0.00 81 1007.3
20200711175804 61 233 0.0 1.0 0.00 0.00 0.00 82 1007.4
20200711175303 60 322 1.0 1.0 0.00 0.00 0.00 82 1007.3
20200711174804 60 0 2.0 3.0 0.00 0.00 0.00 82 1007.4
20200711174304 60 240 0.0 0.0 0.00 0.00 0.00 83 1007.4
20200711173804 60 241 0.0 1.0 0.00 0.00 0.00 83 1007.4
20200711173304 60 11 1.0 2.0 0.00 0.00 0.00 83 1007.4
20200711172805 60 234 1.0 2.0 0.00 0.00 0.00 83 1007.4
20200711172304 60 254 0.0 1.0 0.00 0.00 0.00 83 1007.4
20200711171804 60 247 1.0 2.0 0.00 0.00 0.00 84 1007.4
20200711171304 59 208 2.0 3.0 0.00 0.00 0.00 84 1007.3
20200711170810 59 211 0.0 2.0 0.00 0.00 0.00 84 1007.3
20200711170304 59 212 0.0 1.0 0.00 0.00 0.00 85 1007.3
20200711165804 59 205 0.0 1.0 0.00 0.00 0.00 85 1007.3
20200711165303 59 210 0.0 1.0 0.00 0.00 0.00 85 1007.3
20200711164805 59 201 1.0 3.0 0.00 0.00 0.00 85 1007.3
20200711164304 59 220 1.0 2.0 0.00 0.00 0.00 86 1007.2
20200711163804 58 214 2.0 3.0 0.00 0.00 0.00 86 1007.2
20200711163304 58 190 2.0 3.0 0.00 0.00 0.00 86 1007.2
20200711162804 58 171 3.0 3.0 0.00 0.00 0.00 86 1007.2
20200711162305 58 188 2.0 3.0 0.00 0.00 0.00 86 1007.2
20200711161804 58 200 2.0 3.0 0.00 0.00 0.00 87 1007.2
20200711161304 58 207 2.0 5.0 0.00 0.00 0.00 87 1007.2
20200711160805 58 171 2.0 3.0 0.00 0.00 0.00 87 1007.2
20200711160308 58 149 2.0 2.0 0.00 0.00 0.00 87 1007.2
20200711155804 58 99 0.0 2.0 0.00 0.00 0.00 87 1007.2
20200711155304 57 168 0.0 0.0 0.00 0.00 0.00 88 1007.2
20200711154804 57 168 0.0 0.0 0.00 0.00 0.00 88 1007.2
20200711154304 57 168 0.0 0.0 0.00 0.00 0.00 88 1007.1
20200711153804 57 168 0.0 0.0 0.00 0.00 0.00 88 1007.2
20200711152804 57 168 0.0 0.0 0.00 0.00 0.00 88 1007.1
20200711152304 56 168 0.0 0.0 0.00 0.00 0.00 88 1007.2
20200711151804 56 168 0.0 0.0 0.00 0.00 0.00 88 1007.1
20200711151306 56 168 0.0 0.0 0.00 0.00 0.00 88 1007.1
20200711150804 56 168 1.0 2.0 0.00 0.00 0.00 88 1007.1
20200711150304 56 188 1.0 2.0 0.00 0.00 0.00 88 1007.1
20200711145806 56 173 2.0 2.0 0.00 0.00 0.00 88 1007.0
20200711145305 56 86 0.0 1.0 0.00 0.00 0.00 88 1007.1
20200711144804 56 178 0.0 1.0 0.00 0.00 0.00 88 1007.1
20200711144304 56 198 1.0 2.0 0.00 0.00 0.00 88 1007.1
20200711143803 56 160 1.0 2.0 0.00 0.00 0.00 88 1007.1
20200711143305 55 7 0.0 0.0 0.00 0.00 0.00 88 1007.1
20200711142804 55 7 0.0 0.0 0.00 0.00 0.00 88 1007.1
20200711142304 55 7 0.0 0.0 0.00 0.00 0.00 88 1007.1
20200711141804 56 7 0.0 0.0 0.00 0.00 0.00 88 1007.0
20200711141304 56 7 0.0 0.0 0.00 0.00 0.00 88 1007.0
20200711140805 56 7 0.0 0.0 0.00 0.00 0.00 88 1007.0
20200711140304 56 7 0.0 1.0 0.00 0.00 0.00 88 1007.0
20200711135804 56 130 0.0 0.0 0.00 0.00 0.00 88 1007.0
20200711135306 56 130 0.0 0.0 0.00 0.00 0.00 87 1007.1
20200711134804 56 131 1.0 2.0 0.00 0.00 0.00 87 1007.1
20200711134304 56 124 0.0 0.0 0.00 0.00 0.00 87 1007.1
20200711133804 56 124 0.0 2.0 0.00 0.00 0.00 87 1007.1
20200711133304 56 173 1.0 2.0 0.00 0.00 0.00 87 1007.0
20200711132804 56 24 0.0 1.0 0.00 0.00 0.00 87 1007.1
20200711132304 56 62 2.0 3.0 0.00 0.00 0.00 87 1007.1
20200711131803 56 65 0.0 0.0 0.00 0.00 0.00 87 1007.1
20200711131304 56 65 0.0 0.0 0.00 0.00 0.00 86 1007.1
20200711130804 56 65 0.0 0.0 0.00 0.00 0.00 86 1007.1
20200711130304 56 65 0.0 0.0 0.00 0.00 0.00 86 1007.1
20200711125804 56 65 0.0 1.0 0.00 0.00 0.00 86 1007.1
20200711125304 56 111 1.0 1.0 0.00 0.00 0.00 86 1007.1
20200711124812 56 93 0.0 1.0 0.00 0.00 0.00 85 1007.1
20200711124304 56 89 0.0 0.0 0.00 0.00 0.00 85 1007.2
20200711123804 56 89 0.0 0.0 0.00 0.00 0.00 85 1007.3
20200711123305 56 89 0.0 0.0 0.00 0.00 0.00 85 1007.3
20200711122805 56 89 0.0 2.0 0.00 0.00 0.00 84 1007.3
20200711122304 57 121 0.0 1.0 0.00 0.00 0.00 84 1007.4
20200711121804 57 121 0.0 0.0 0.00 0.00 0.00 84 1007.4
20200711121304 57 121 0.0 0.0 0.00 0.00 0.00 84 1007.4
20200711120804 57 121 0.0 1.0 0.00 0.00 0.00 84 1007.4
20200711120304 57 141 1.0 2.0 0.00 0.00 0.00 83 1007.4
20200711115804 57 117 0.0 1.0 0.00 0.00 0.00 83 1007.5
20200711115305 57 160 1.0 1.0 0.00 0.00 0.00 83 1007.4
20200711114804 57 115 1.0 2.0 0.00 0.00 0.00 82 1007.5
20200711114304 57 135 1.0 2.0 0.00 0.00 0.00 82 1007.5
20200711113804 57 79 2.0 3.0 0.00 0.00 0.00 82 1007.5
20200711113303 57 62 0.0 3.0 0.00 0.00 0.00 82 1007.6
20200711112804 57 51 0.0 2.0 0.00 0.00 0.00 82 1007.7
20200711112303 57 171 0.0 0.0 0.00 0.00 0.00 81 1007.6
20200711111803 57 171 0.0 1.0 0.00 0.00 0.00 81 1007.6
20200711111304 57 31 0.0 0.0 0.00 0.00 0.00 81 1007.6
20200711110804 57 31 0.0 1.0 0.00 0.00 0.00 81 1007.5
20200711110303 57 19 1.0 2.0 0.00 0.00 0.00 81 1007.5
20200711105808 57 72 0.0 0.0 0.00 0.00 0.00 81 1007.4
20200711105303 57 72 0.0 2.0 0.00 0.00 0.00 81 1007.5
20200711104805 57 354 1.0 2.0 0.00 0.00 0.00 81 1007.5
20200711104305 57 54 0.0 1.0 0.00 0.00 0.00 81 1007.5
20200711103804 57 75 0.0 0.0 0.00 0.00 0.00 81 1007.5
20200711103307 57 75 1.0 2.0 0.00 0.00 0.00 81 1007.6
20200711102803 57 342 0.0 0.0 0.00 0.00 0.00 82 1007.6
20200711102304 57 342 0.0 2.0 0.00 0.00 0.00 82 1007.6
20200711101811 57 21 1.0 5.0 0.00 0.00 0.00 82 1007.6
20200711101304 57 53 3.0 5.0 0.00 0.00 0.00 81 1007.6
20200711100804 57 18 3.0 3.0 0.00 0.00 0.00 81 1007.6
20200711100304 57 112 0.0 2.0 0.00 0.00 0.00 81 1007.5
20200711095803 57 207 2.0 3.0 0.00 0.00 0.00 81 1007.6
20200711095304 57 124 0.0 1.0 0.00 0.00 0.00 80 1007.5
20200711094804 57 140 1.0 2.0 0.00 0.00 0.00 80 1007.5
20200711094303 57 153 1.0 2.0 0.00 0.00 0.00 80 1007.5
20200711093805 57 166 1.0 3.0 0.00 0.00 0.00 80 1007.5
20200711093305 57 159 1.0 3.0 0.00 0.00 0.00 80 1007.5
20200711092804 57 164 2.0 3.0 0.00 0.00 0.00 80 1007.5
20200711092303 57 166 2.0 5.0 0.00 0.00 0.00 80 1007.5
20200711091804 58 149 3.0 5.0 0.00 0.00 0.00 80 1007.5
20200711091304 58 51 0.0 2.0 0.00 0.00 0.00 80 1007.3
20200711090803 58 51 0.0 0.0 0.00 0.00 0.00 80 1007.3
20200711090304 58 51 0.0 0.0 0.00 0.00 0.00 80 1007.3
20200711085803 58 51 0.0 0.0 0.00 0.00 0.00 80 1007.3
20200711085304 57 51 0.0 0.0 0.00 0.00 0.00 80 1007.3
20200711084805 58 51 0.0 0.0 0.00 0.00 0.00 79 1007.2
20200711084303 58 51 0.0 0.0 0.00 0.00 0.00 79 1007.2
20200711083804 58 51 0.0 0.0 0.00 0.00 0.00 78 1007.2
20200711083312 58 51 0.0 0.0 0.00 0.00 0.00 78 1007.2
20200711082804 58 51 0.0 0.0 0.00 0.00 0.00 78 1007.1
20200711082304 58 51 0.0 0.0 0.00 0.00 0.00 78 1007.1
20200711081804 58 51 0.0 1.0 0.00 0.00 0.00 77 1007.0
20200711081304 58 117 0.0 1.0 0.00 0.00 0.00 77 1007.1
20200711080816 58 104 1.0 2.0 0.00 0.00 0.00 77 1007.0
20200711080304 59 151 1.0 5.0 0.00 0.00 0.00 76 1007.0
20200711075803 59 197 1.0 5.0 0.00 0.00 0.00 76 1007.0
20200711075304 59 134 0.0 0.0 0.00 0.00 0.00 75 1007.0
20200711074804 59 134 0.0 0.0 0.00 0.00 0.00 75 1006.9
20200711074305 60 134 0.0 0.0 0.00 0.00 0.00 75 1006.9
20200711073805 60 134 0.0 0.0 0.00 0.00 0.00 74 1006.9
20200711073304 60 134 0.0 1.0 0.00 0.00 0.00 74 1006.9
20200711072803 60 85 0.0 1.0 0.00 0.00 0.00 73 1006.9
20200711072304 61 80 1.0 1.0 0.00 0.00 0.00 73 1006.9
20200711071805 61 104 0.0 0.0 0.00 0.00 0.00 72 1006.9
20200711071304 61 147 2.0 3.0 0.00 0.00 0.00 72 1006.9
20200711070803 62 169 3.0 5.0 0.00 0.00 0.00 72 1006.9
20200711070304 62 145 2.0 3.0 0.00 0.00 0.00 72 1006.9
20200711065805 62 148 0.0 1.0 0.00 0.00 0.00 71 1006.9
20200711065306 63 146 1.0 2.0 0.00 0.00 0.00 71 1006.8
20200711064805 63 170 1.0 2.0 0.00 0.00 0.00 70 1006.8
20200711064304 63 162 1.0 1.0 0.00 0.00 0.00 70 1006.8
20200711063804 63 162 0.0 0.0 0.00 0.00 0.00 70 1006.8
20200711063304 63 163 1.0 2.0 0.00 0.00 0.00 69 1006.8
20200711062805 64 218 2.0 3.0 0.00 0.00 0.00 69 1006.8
20200711062304 64 200 1.0 3.0 0.00 0.00 0.00 68 1006.8
20200711061804 64 198 1.0 3.0 0.00 0.00 0.00 68 1006.8
20200711061303 64 195 2.0 3.0 0.00 0.00 0.00 68 1006.8
20200711060803 64 180 2.0 2.0 0.00 0.00 0.00 68 1006.7
20200711060304 64 162 2.0 2.0 0.00 0.00 0.00 68 1006.8
20200711055805 64 80 0.0 1.0 0.00 0.00 0.00 68 1006.8
20200711055304 64 97 1.0 2.0 0.00 0.00 0.00 68 1006.8
20200711054804 64 110 1.0 1.0 0.00 0.00 0.00 68 1006.8
20200711054304 64 132 0.0 2.0 0.00 0.00 0.00 68 1006.8
20200711053803 65 54 1.0 2.0 0.00 0.00 0.00 68 1006.8
20200711053304 65 51 2.0 2.0 0.00 0.00 0.00 67 1006.8
20200711052804 65 37 1.0 3.0 0.00 0.00 0.00 66 1006.8
20200711052304 65 39 1.0 5.0 0.00 0.00 0.00 66 1006.9
20200711051804 65 55 3.0 6.0 0.00 0.00 0.00 65 1006.9
20200711051309 65 49 3.0 6.0 0.00 0.00 0.00 65 1006.9
20200711050804 65 44 3.0 7.0 0.00 0.00 0.00 64 1006.9
20200711050304 66 50 5.0 8.0 0.00 0.00 0.00 63 1006.9
20200711045804 66 33 5.0 8.0 0.00 0.00 0.00 62 1007.0
20200711045304 66 0 3.0 6.0 0.00 0.00 0.00 61 1007.0
20200711044804 66 8 3.0 6.0 0.00 0.00 0.00 61 1007.0
20200711044308 66 10 3.0 6.0 0.00 0.00 0.00 62 1006.9
20200711043807 66 344 2.0 6.0 0.00 0.00 0.00 62 1006.9
20200711043304 66 342 5.0 9.0 0.00 0.00 0.00 62 1007.0
20200711042805 66 324 1.0 8.0 0.00 0.00 0.00 62 1007.0
20200711042304 66 315 2.0 8.0 0.00 0.00 0.00 62 1007.0
20200711041805 66 327 2.0 6.0 0.00 0.00 0.00 62 1006.9
20200711041303 66 333 4.0 9.0 0.00 0.00 0.00 62 1006.8
20200711040803 66 258 2.0 9.0 0.00 0.00 0.00 61 1006.8
20200711040304 66 275 3.0 10.0 0.00 0.00 0.00 61 1006.8
20200711035804 67 174 2.0 9.0 0.00 0.00 0.00 60 1006.7
20200711035305 67 342 3.0 8.0 0.00 0.00 0.00 60 1006.7
20200711034807 67 306 2.0 9.0 0.00 0.00 0.00 59 1006.7
20200711034305 67 324 3.0 7.0 0.00 0.00 0.00 59 1006.6
20200711033806 67 332 3.0 8.0 0.00 0.00 0.00 61 1006.6
20200711033304 67 333 2.0 9.0 0.00 0.00 0.00 60 1006.6
20200711032803 68 285 4.0 12.0 0.00 0.00 0.00 60 1006.5
20200711032306 69 312 5.0 14.0 0.00 0.00 0.00 60 1006.4
20200711031805 69 289 2.0 7.0 0.00 0.00 0.00 60 1006.3
20200711031305 69 316 3.0 6.0 0.00 0.00 0.00 60 1006.3
20200711030804 69 229 3.0 6.0 0.00 0.00 0.00 61 1006.3
20200711030306 68 286 1.0 2.0 0.00 0.00 0.00 61 1006.3
20200711025804 68 325 3.0 6.0 0.00 0.00 0.00 61 1006.3
20200711025304 68 234 1.0 3.0 0.00 0.00 0.00 61 1006.3
20200711024804 68 294 2.0 3.0 0.00 0.00 0.00 62 1006.2
20200711024304 68 218 3.0 6.0 0.00 0.00 0.00 63 1006.2
20200711023810 68 127 1.0 6.0 0.00 0.00 0.00 63 1006.2
20200711023304 67 227 2.0 5.0 0.00 0.00 0.00 63 1006.2
20200711022804 67 331 1.0 6.0 0.00 0.00 0.00 64 1006.2
20200711022304 67 181 3.0 9.0 0.00 0.00 0.00 64 1006.3
20200711021805 67 342 2.0 8.0 0.00 0.00 0.00 64 1006.4
20200711021304 66 281 2.0 7.0 0.00 0.00 0.00 65 1006.3
20200711020803 66 312 3.0 8.0 0.00 0.00 0.00 65 1006.4
20200711020304 66 316 3.0 9.0 0.00 0.00 0.00 64 1006.4
20200711015804 66 304 4.0 9.0 0.00 0.00 0.00 63 1006.4
20200711015304 67 318 4.0 12.0 0.00 0.00 0.00 63 1006.4
20200711014804 68 287 3.0 8.0 0.00 0.00 0.00 62 1006.4
20200711014303 68 323 3.0 9.0 0.00 0.00 0.00 61 1006.4
20200711013824 69 261 2.0 7.0 0.00 0.00 0.00 60 1006.5
20200711013308 69 299 3.0 6.0 0.00 0.00 0.00 60 1006.5
20200711012803 70 317 2.0 7.0 0.00 0.00 0.00 58 1006.4
20200711012304 70 265 2.0 8.0 0.00 0.00 0.00 57 1006.5
20200711011804 70 218 7.0 10.0 0.00 0.00 0.00 57 1006.5
20200711011304 70 197 5.0 8.0 0.00 0.00 0.00 58 1006.5
20200711010806 70 261 2.0 7.0 0.00 0.00 0.00 58 1006.6
20200711010303 70 260 2.0 8.0 0.00 0.00 0.00 59 1006.6
20200711005803 69 262 5.0 8.0 0.00 0.00 0.00 60 1006.5
20200711005304 69 263 4.0 9.0 0.00 0.00 0.00 60 1006.5
20200711004804 69 209 6.0 12.0 0.00 0.00 0.00 61 1006.5
20200711004306 69 223 3.0 8.0 0.00 0.00 0.00 62 1006.5
20200711003803 68 194 3.0 8.0 0.00 0.00 0.00 63 1006.5
20200711003303 68 223 6.0 10.0 0.00 0.00 0.00 63 1006.5
20200711002805 68 322 2.0 8.0 0.00 0.00 0.00 64 1006.5
20200711002304 68 312 1.0 3.0 0.00 0.00 0.00 64 1006.6
20200711001803 67 211 2.0 6.0 0.00 0.00 0.00 64 1006.6
20200711001303 67 280 1.0 7.0 0.00 0.00 0.00 65 1006.5
20200711000806 67 240 2.0 7.0 0.00 0.00 0.00 65 1006.6
20200711000303 67 283 2.0 7.0 0.00 0.00 0.00 64 1006.6
20200710235804 67 290 2.0 7.0 0.00 0.00 0.00 65 1006.6
20200710235303 67 281 2.0 7.0 0.00 0.00 0.00 66 1006.7
20200710234804 67 212 1.0 6.0 0.00 0.00 0.00 66 1006.7
20200710234303 67 270 2.0 7.0 0.00 0.00 0.00 66 1006.7
20200710233804 67 139 5.0 9.0 0.00 0.00 0.00 66 1006.6
20200710233305 67 192 1.0 6.0 0.00 0.00 0.00 66 1006.7
20200710232804 67 190 2.0 8.0 0.00 0.00 0.00 66 1006.7
20200710232304 67 246 2.0 6.0 0.00 0.00 0.00 66 1006.8
20200710231806 67 259 6.0 8.0 0.00 0.00 0.00 67 1006.8
20200710231304 66 211 5.0 8.0 0.00 0.00 0.00 67 1006.9
20200710230803 66 286 1.0 5.0 0.00 0.00 0.00 67 1006.9
20200710230304 66 256 1.0 6.0 0.00 0.00 0.00 66 1006.9
20200710225804 66 218 1.0 3.0 0.00 0.00 0.00 65 1007.0
20200710225304 66 316 2.0 7.0 0.00 0.00 0.00 66 1006.9
20200710224823 67 301 2.0 6.0 0.00 0.00 0.00 66 1006.9
20200710224305 67 278 2.0 9.0 0.00 0.00 0.00 66 1007.0
20200710223806 67 306 1.0 5.0 0.00 0.00 0.00 66 1007.0
20200710223303 67 264 2.0 7.0 0.00 0.00 0.00 66 1007.0
20200710222803 66 321 2.0 6.0 0.00 0.00 0.00 66 1007.0
20200710222308 66 307 3.0 7.0 0.00 0.00 0.00 66 1007.0
20200710221804 66 229 6.0 9.0 0.00 0.00 0.00 66 1007.0
20200710221304 66 260 5.0 9.0 0.00 0.00 0.00 65 1007.0
20200710220825 66 298 3.0 7.0 0.00 0.00 0.00 66 1007.0
20200710220306 66 220 6.0 12.0 0.00 0.00 0.00 65 1007.0
20200710215805 66 311 5.0 12.0 0.00 0.00 0.00 66 1006.9
20200710215303 66 247 2.0 9.0 0.00 0.00 0.00 66 1007.0
20200710214804 66 262 5.0 12.0 0.00 0.00 0.00 66 1007.0
20200710214304 66 224 6.0 10.0 0.00 0.00 0.00 67 1006.9
20200710213804 66 276 3.0 9.0 0.00 0.00 0.00 67 1006.9
20200710213304 66 257 3.0 12.0 0.00 0.00 0.00 68 1006.9
20200710212804 66 205 6.0 12.0 0.00 0.00 0.00 69 1007.0
20200710212304 66 218 6.0 10.0 0.00 0.00 0.00 70 1007.0
20200710211804 65 223 6.0 12.0 0.00 0.00 0.00 71 1007.1
20200710211310 65 222 2.0 8.0 0.00 0.00 0.00 72 1007.1
20200710210804 65 219 3.0 12.0 0.00 0.00 0.00 73 1007.2
20200710210304 65 308 2.0 7.0 0.00 0.00 0.00 74 1007.2
20200710205804 64 211 6.0 8.0 0.00 0.00 0.00 75 1007.3
20200710205304 63 234 2.0 5.0 0.00 0.00 0.00 75 1007.3